North Jay, Maine
Current Conditions -  °F | °C
As of 11:53 AM on Friday 24 Oct 2014 (Local Time) from KAUG Reporting Station
Light Rain Light Rain  
Wind Chill: 40°   Ceiling: 700
Heat Index: 46°   Visibility: 3mi
Dew Point: 44°   Wind: 14mph
Humidity: 93%   Direction: 350°N
Pressure: 29.7"   Gusts: NA
Location:  44.55°N, 70.24°W
Report Text: KAUG 241553Z AUTO 35012KT 3SM -RA BR BKN007 OVC010 08/07 A2970 RMK AO2 RAB15 SLP059 P0001 T00780067
Loading
Personal Weather Stations






























Interactive Weather Map
Tropical Storm Tracking
New forecast layout! Learn more

10-Day Weather Forecast

Advertisements
Track Severe Weather on mobile